Airfield :
LOGIN :

Register | Disclaimer

   EN    FR    IT 

 










Legend :    VFR   Marginal VFR   IFR   Intensive IFR   Very Intensive IFR
Visi :
Ceiling :
>= 8 km
>= 3000ft
5 to 8 km
1000 to 3000 ft
1500m to 5 km
500 to 1000 ft
800 to 1500m
200 to 500 ft
< 800m
< 200 ft
Symbols :   Thunderstorms  Fog  Heavy snow  Heavy precipitations  Wind > 20 kt
SIGMETs :     Misc.  Thunderstorms  Icing  Turbulence  Mountain Waves  Volcanic Ashes







- Airport Elevation : 203 ft
- IATA code : XMJ
- Download approach charts


LFBM - Mont-De-Marsan

CURRENT METAR :
  • 181900Z AUTO 00000KT 9000 FEW042 15/15 Q1016 TEMPO 0700 FG VV///

EXPIRED METARs :
  • 181830Z AUTO VRB01KT CAVOK 16/15 Q1016 TEMPO 0700 FG VV///
  • 181800Z AUTO 01003KT CAVOK 16/15 Q1016 TEMPO 0700 FG VV///
  • 181730Z AUTO 00000KT CAVOK 17/15 Q1015 TEMPO 0700 FG VV///
  • 181700Z AUTO 00000KT CAVOK 19/16 Q1015 TEMPO 0700 FG VV///
  • 181630Z AUTO 03004KT CAVOK 20/16 Q1015 TEMPO 0700 FG VV///

TAF TAF LFBM
Valid from the 18 at 15:00 until the 19 at 15:00 UTC


181400Z 1815/1915 VRB03KT 9999 SCT015 BKN140
BECMG 1818/1820 4000 BR
TEMPO 1818/1824 0700 FG VV///
BECMG 1900/1902 0500 FG VV///
BECMG 1909/1912 5000 BKN008
BECMG 1912/1915 CAVOK
No reported NOTAMs for that airfield.



MET'MAP, your aeronautical weather chart ! - Copyright ORBIFLY December 2007 - Disclaimer

ORBIFLY MET'MAP TEAM :

Programming & Development : Alexandra Zaïnal
Concept & Development : Baudouin d'Aumeries
Co-Development & Prog : Marc-Olivier Méhu
Technical & hardware support : Manuel Goepfert

Contact : metmap@orbifly.com




SOURCES & CREDITS :

   NOAA